createdAt,value
2022-12-15T00:02:35.486Z,99081.06
2022-12-15T00:05:22.023Z,99070.81
2022-12-15T00:08:07.824Z,99076.47
2022-12-15T00:10:53.385Z,99068.63
2022-12-15T00:13:38.845Z,99068.94
2022-12-15T00:16:25.966Z,99074.88
2022-12-15T00:19:11.654Z,99073.41
2022-12-15T00:21:57.377Z,99068.44
2022-12-15T00:24:43.350Z,99068.13
2022-12-15T00:27:28.858Z,99056.19
2022-12-15T00:30:14.467Z,99055.09
2022-12-15T00:33:00.166Z,99059.16
2022-12-15T00:35:45.776Z,99055.28
2022-12-15T00:38:33.489Z,99052.31
2022-12-15T00:41:02.095Z,99064.66
2022-12-15T00:43:35.063Z,99052.59
2022-12-15T00:46:21.891Z,99058.94
2022-12-15T00:48:48.972Z,99058.88
2022-12-15T00:51:17.609Z,99065.66
2022-12-15T00:54:04.918Z,99059.97
2022-12-15T00:56:50.701Z,99059.38
2022-12-15T00:59:36.557Z,99052.22
2022-12-15T01:02:22.771Z,99045.34
2022-12-15T01:05:08.563Z,99040.00
2022-12-15T01:07:54.396Z,99049.75
2022-12-15T01:10:39.967Z,99051.13
2022-12-15T01:13:25.803Z,99046.31
2022-12-15T01:16:11.369Z,99057.06
2022-12-15T01:18:57.310Z,99049.91
2022-12-15T01:21:25.492Z,99060.53
2022-12-15T01:23:53.430Z,99053.28
2022-12-15T01:26:20.727Z,99053.78
2022-12-15T01:28:47.853Z,99050.31
2022-12-15T01:31:15.322Z,99046.03
2022-12-15T01:33:43.749Z,99048.31
2022-12-15T01:36:11.667Z,99038.06
2022-12-15T01:38:38.701Z,99051.41
2022-12-15T01:41:09.955Z,99041.97
2022-12-15T01:43:39.683Z,99040.25
2022-12-15T01:46:12.654Z,99052.19
2022-12-15T01:49:02.558Z,99051.09
2022-12-15T01:51:39.546Z,99054.47
2022-12-15T01:54:15.065Z,99055.19
2022-12-15T01:56:47.775Z,99045.66
2022-12-15T01:59:20.919Z,99045.75
2022-12-15T02:01:49.869Z,99042.63
2022-12-15T02:04:21.412Z,99049.91
2022-12-15T02:06:48.567Z,99039.84
2022-12-15T02:09:17.134Z,99031.50
2022-12-15T02:12:13.337Z,99032.72
2022-12-15T02:15:23.570Z,99038.75
2022-12-15T02:18:02.704Z,99039.56
2022-12-15T02:20:53.322Z,99044.72
2022-12-15T02:23:50.491Z,99048.72
2022-12-15T02:26:41.330Z,99044.16
2022-12-15T02:29:29.162Z,99042.06
2022-12-15T02:32:13.595Z,99048.09
2022-12-15T02:34:48.360Z,99045.31
2022-12-15T02:37:32.066Z,99050.19
2022-12-15T02:39:59.356Z,99042.50
2022-12-15T02:42:29.067Z,99041.94
2022-12-15T02:45:09.316Z,99051.75
2022-12-15T02:47:48.635Z,99057.16
2022-12-15T02:50:29.771Z,99066.88
2022-12-15T02:53:34.897Z,99067.28
2022-12-15T02:56:31.695Z,99060.78
2022-12-15T02:59:34.039Z,99063.19
2022-12-15T03:02:06.939Z,99061.53
2022-12-15T03:04:34.181Z,99063.78
2022-12-15T03:07:09.511Z,99062.47
2022-12-15T03:09:36.462Z,99059.25
2022-12-15T03:12:03.739Z,99065.00
2022-12-15T03:14:30.695Z,99061.97
2022-12-15T03:16:57.731Z,99062.34
2022-12-15T03:19:25.905Z,99061.13
2022-12-15T03:21:53.149Z,99066.59
2022-12-15T03:24:20.199Z,99068.38
2022-12-15T03:26:50.107Z,99069.53
2022-12-15T03:29:18.102Z,99071.09
2022-12-15T03:31:45.574Z,99067.94
2022-12-15T03:34:13.661Z,99073.28
2022-12-15T03:36:40.983Z,99080.16
2022-12-15T03:39:08.020Z,99079.38
2022-12-15T03:41:35.159Z,99087.50
2022-12-15T03:44:02.172Z,99084.41
2022-12-15T03:46:29.205Z,99086.06
2022-12-15T03:48:56.326Z,99088.41
2022-12-15T03:51:23.371Z,99086.50
2022-12-15T03:53:50.727Z,99091.47
2022-12-15T03:56:18.427Z,99084.22
2022-12-15T03:58:45.414Z,99092.19
2022-12-15T04:01:23.134Z,99092.53
2022-12-15T04:03:50.404Z,99092.97
2022-12-15T04:06:18.685Z,99095.84
2022-12-15T04:08:45.692Z,99096.03
2022-12-15T04:11:17.832Z,99095.19
2022-12-15T04:13:45.224Z,99091.84
2022-12-15T04:16:17.829Z,99088.63
2022-12-15T04:18:46.668Z,99095.59
2022-12-15T04:21:13.613Z,99100.13
2022-12-15T04:23:59.153Z,99105.22
2022-12-15T04:26:44.670Z,99112.81
2022-12-15T04:29:30.587Z,99114.97
2022-12-15T04:32:15.946Z,99106.63
2022-12-15T04:35:01.950Z,99108.69
2022-12-15T04:37:47.734Z,99108.19
2022-12-15T04:40:33.338Z,99112.28
2022-12-15T04:43:18.933Z,99117.78
2022-12-15T04:46:04.767Z,99124.59
2022-12-15T04:48:50.314Z,99123.34
2022-12-15T04:51:35.972Z,99118.19
2022-12-15T04:54:21.497Z,99126.91
2022-12-15T04:57:07.405Z,99127.25
2022-12-15T04:59:53.221Z,99136.81
2022-12-15T05:02:38.800Z,99140.41
2022-12-15T05:05:24.918Z,99157.09
2022-12-15T05:08:10.675Z,99155.44
2022-12-15T05:10:56.482Z,99163.59
2022-12-15T05:13:42.255Z,99157.34
2022-12-15T05:16:27.831Z,99162.78
2022-12-15T05:19:13.721Z,99166.53
2022-12-15T05:21:59.073Z,99171.63
2022-12-15T05:24:44.862Z,99175.75
2022-12-15T05:27:30.729Z,99177.09
2022-12-15T05:30:16.511Z,99176.03
2022-12-15T05:32:43.493Z,99177.38
2022-12-15T05:35:10.659Z,99188.66
2022-12-15T05:37:37.701Z,99192.94
2022-12-15T05:40:05.265Z,99203.81
2022-12-15T05:42:32.194Z,99201.84
2022-12-15T05:44:59.166Z,99203.63
2022-12-15T05:47:26.422Z,99218.13
2022-12-15T05:49:53.482Z,99223.81
2022-12-15T05:52:20.452Z,99222.28
2022-12-15T05:54:47.392Z,99221.34
2022-12-15T05:57:14.455Z,99222.84
2022-12-15T05:59:41.381Z,99234.31
2022-12-15T06:02:08.372Z,99231.50
2022-12-15T06:04:35.391Z,99236.88
2022-12-15T06:07:02.387Z,99245.13
2022-12-15T06:09:29.406Z,99251.41
2022-12-15T06:11:56.343Z,99251.00
2022-12-15T06:14:23.496Z,99253.16
2022-12-15T06:16:51.699Z,99261.78
2022-12-15T06:19:20.321Z,99279.19
2022-12-15T06:21:47.531Z,99281.97
2022-12-15T06:24:14.561Z,99288.34
2022-12-15T06:26:41.584Z,99285.19
2022-12-15T06:29:12.019Z,99288.47
2022-12-15T06:31:41.098Z,99292.16
2022-12-15T06:34:12.386Z,99297.84
2022-12-15T06:36:40.200Z,99302.53
2022-12-15T06:39:10.903Z,99308.31
2022-12-15T06:41:38.747Z,99314.28
2022-12-15T06:44:05.903Z,99312.78
2022-12-15T06:46:35.068Z,99323.81
2022-12-15T06:49:02.566Z,99333.78
2022-12-15T06:51:30.305Z,99335.56
2022-12-15T06:53:57.286Z,99332.88
2022-12-15T06:56:33.013Z,99330.72
2022-12-15T06:59:02.020Z,99334.47
2022-12-15T07:01:29.818Z,99340.75
2022-12-15T07:04:00.149Z,99338.56
2022-12-15T07:06:28.305Z,99347.94
2022-12-15T07:08:56.829Z,99351.81
2022-12-15T07:11:24.106Z,99349.94
2022-12-15T07:13:54.634Z,99355.09
2022-12-15T07:16:23.197Z,99359.00
2022-12-15T07:18:50.544Z,99355.91
2022-12-15T07:21:18.182Z,99367.47
2022-12-15T07:23:54.657Z,99382.81
2022-12-15T07:26:23.679Z,99382.03
2022-12-15T07:28:50.718Z,99378.66
2022-12-15T07:31:17.964Z,99388.09
2022-12-15T07:33:45.518Z,99398.66
2022-12-15T07:36:13.225Z,99408.44
2022-12-15T07:38:40.268Z,99410.53
2022-12-15T07:41:09.864Z,99411.72
2022-12-15T07:43:38.121Z,99414.00
2022-12-15T07:46:06.369Z,99423.38
2022-12-15T07:48:33.810Z,99431.44
2022-12-15T07:51:12.431Z,99419.47
2022-12-15T07:53:44.555Z,99425.16
2022-12-15T07:56:11.575Z,99420.38
2022-12-15T07:58:39.015Z,99426.16
2022-12-15T08:01:10.592Z,99436.31
2022-12-15T08:03:39.162Z,99431.22
2022-12-15T08:06:12.145Z,99433.84
2022-12-15T08:08:40.499Z,99443.34
2022-12-15T08:11:10.868Z,99447.81
2022-12-15T08:16:27.520Z,99463.16
2022-12-15T08:18:57.114Z,99470.00
2022-12-15T08:21:24.141Z,99467.56
2022-12-15T08:23:51.166Z,99469.66
2022-12-15T08:26:18.994Z,99479.53
2022-12-15T08:28:46.274Z,99487.91
2022-12-15T08:31:22.825Z,99489.91
2022-12-15T08:33:50.631Z,99497.06
2022-12-15T08:36:19.445Z,99489.09
2022-12-15T08:38:47.669Z,99494.88
2022-12-15T08:41:20.982Z,99508.53
2022-12-15T08:43:49.762Z,99504.19
2022-12-15T08:46:19.217Z,99506.34
2022-12-15T08:48:47.004Z,99520.81
2022-12-15T08:51:14.397Z,99511.16
2022-12-15T08:53:41.653Z,99512.16
2022-12-15T08:56:13.103Z,99509.84
2022-12-15T08:58:40.683Z,99512.25
2022-12-15T09:01:16.075Z,99517.94
2022-12-15T09:03:46.450Z,99523.22
2022-12-15T09:06:27.754Z,99524.94
2022-12-15T09:08:57.706Z,99532.88
2022-12-15T09:11:26.125Z,99536.75
2022-12-15T09:13:53.209Z,99534.97
2022-12-15T09:16:21.582Z,99525.88
2022-12-15T09:18:55.496Z,99531.28
2022-12-15T09:21:26.307Z,99542.09
2022-12-15T09:23:57.776Z,99537.75
2022-12-15T09:26:24.976Z,99546.50
2022-12-15T09:28:54.940Z,99545.63
2022-12-15T09:31:32.766Z,99552.34
2022-12-15T09:34:00.901Z,99550.53
2022-12-15T09:36:30.038Z,99563.50
2022-12-15T09:38:56.985Z,99564.50
2022-12-15T09:41:33.155Z,99561.81
2022-12-15T09:44:28.998Z,99570.75
2022-12-15T09:47:01.285Z,99576.06
2022-12-15T09:50:01.596Z,99575.56
2022-12-15T09:52:35.846Z,99572.75
2022-12-15T09:55:16.762Z,99568.22
2022-12-15T09:57:52.999Z,99572.09
2022-12-15T10:00:36.544Z,99576.56
2022-12-15T10:03:32.071Z,99581.69
2022-12-15T10:06:20.067Z,99571.78
2022-12-15T10:08:57.464Z,99570.09
2022-12-15T10:11:40.930Z,99588.47
2022-12-15T10:14:23.136Z,99594.75
2022-12-15T10:17:17.169Z,99599.81
2022-12-15T10:20:07.261Z,99601.31
2022-12-15T10:22:38.269Z,99603.19
2022-12-15T10:25:14.123Z,99604.84
2022-12-15T10:27:56.085Z,99608.31
2022-12-15T10:30:23.389Z,99605.59
2022-12-15T10:33:11.472Z,99611.81
2022-12-15T10:35:40.441Z,99611.41
2022-12-15T10:38:24.636Z,99611.41
2022-12-15T10:40:56.601Z,99608.22
2022-12-15T10:43:25.389Z,99606.53
2022-12-15T10:46:24.622Z,99621.88
2022-12-15T10:48:57.133Z,99626.28
2022-12-15T10:51:42.812Z,99632.69
2022-12-15T10:54:09.944Z,99635.78
2022-12-15T10:56:57.337Z,99638.50
2022-12-15T10:59:34.215Z,99639.25
2022-12-15T11:02:36.926Z,99647.16
2022-12-15T11:05:22.857Z,99640.88
2022-12-15T11:08:17.168Z,99649.38
2022-12-15T11:11:18.374Z,99644.56
2022-12-15T11:14:11.339Z,99644.34
2022-12-15T11:16:54.170Z,99655.34
2022-12-15T11:19:40.669Z,99660.56
2022-12-15T11:22:18.694Z,99653.78
2022-12-15T11:24:53.362Z,99667.59
2022-12-15T11:27:36.006Z,99672.13
2022-12-15T11:30:20.139Z,99673.13
2022-12-15T11:32:58.094Z,99677.31
2022-12-15T11:35:53.295Z,99682.50
2022-12-15T11:38:56.791Z,99679.41
2022-12-15T11:41:53.491Z,99684.81
2022-12-15T11:44:51.970Z,99689.28
2022-12-15T11:47:47.485Z,99702.69
2022-12-15T11:50:41.334Z,99715.44
2022-12-15T11:53:27.486Z,99709.06
2022-12-15T11:56:24.435Z,99715.16
2022-12-15T11:59:27.495Z,99718.66
2022-12-15T12:02:27.363Z,99722.94
2022-12-15T12:05:34.171Z,99724.25
2022-12-15T12:08:19.029Z,99745.78
2022-12-15T12:11:07.381Z,99734.09
2022-12-15T12:13:58.578Z,99734.91
2022-12-15T12:16:40.241Z,99738.88
2022-12-15T12:19:18.136Z,99743.44
2022-12-15T12:21:51.537Z,99741.75
2022-12-15T12:24:33.114Z,99747.56
2022-12-15T12:27:41.688Z,99749.56
2022-12-15T12:30:20.087Z,99750.78
2022-12-15T12:33:03.226Z,99760.19
2022-12-15T12:35:42.557Z,99757.94
2022-12-15T12:38:13.138Z,99768.25
2022-12-15T12:41:20.563Z,99777.34
2022-12-15T12:44:00.857Z,99783.56
2022-12-15T12:46:37.393Z,99778.16
2022-12-15T12:49:26.791Z,99785.53
2022-12-15T12:51:58.822Z,99782.41
2022-12-15T12:54:37.515Z,99777.38
2022-12-15T12:57:13.429Z,99793.19
2022-12-15T13:00:02.773Z,99793.13
2022-12-15T13:02:35.298Z,99794.84
2022-12-15T13:05:30.899Z,99801.19
2022-12-15T13:08:07.003Z,99798.91
2022-12-15T13:10:37.498Z,99807.72
2022-12-15T13:13:42.114Z,99799.06
2022-12-15T13:16:24.285Z,99800.03
2022-12-15T13:19:02.152Z,99805.84
2022-12-15T13:21:44.506Z,99818.91
2022-12-15T13:24:29.975Z,99811.81
2022-12-15T13:27:08.749Z,99816.47
2022-12-15T13:30:14.181Z,99823.50
2022-12-15T13:32:46.048Z,99809.66
2022-12-15T13:35:14.454Z,99828.72
2022-12-15T13:38:03.863Z,99828.81
2022-12-15T13:40:36.907Z,99829.50
2022-12-15T13:43:06.620Z,99834.97
2022-12-15T13:45:35.889Z,99845.34
2022-12-15T13:48:22.646Z,99839.06
2022-12-15T13:51:18.486Z,99846.78
2022-12-15T13:53:53.627Z,99841.97
2022-12-15T13:56:45.313Z,99854.09
2022-12-15T13:59:40.174Z,99862.34
2022-12-15T14:02:28.007Z,99862.66
2022-12-15T14:05:15.105Z,99874.00
2022-12-15T14:07:54.996Z,99868.50
2022-12-15T14:10:42.412Z,99867.34
2022-12-15T14:13:29.751Z,99861.03
2022-12-15T14:16:00.428Z,99871.19
2022-12-15T14:18:33.421Z,99873.22
2022-12-15T14:21:05.141Z,99860.59
2022-12-15T14:24:11.465Z,99870.63
2022-12-15T14:26:32.880Z,99856.50
2022-12-15T14:29:06.183Z,99858.69
2022-12-15T14:31:33.798Z,99866.06
2022-12-15T14:34:12.070Z,99869.19
2022-12-15T14:36:42.099Z,99868.66
2022-12-15T14:39:30.719Z,99860.47
2022-12-15T14:41:59.098Z,99872.00
2022-12-15T14:44:48.117Z,99864.78
2022-12-15T14:47:31.924Z,99858.03
2022-12-15T14:50:02.228Z,99865.56
2022-12-15T14:52:38.911Z,99874.50
2022-12-15T14:55:36.952Z,99885.22
2022-12-15T14:58:35.884Z,99869.78
2022-12-15T15:01:06.961Z,99882.06
2022-12-15T15:03:40.798Z,99898.41
2022-12-15T15:06:18.833Z,99896.34
2022-12-15T15:08:52.734Z,99891.53
2022-12-15T15:11:36.244Z,99899.31
2022-12-15T15:14:17.039Z,99901.44
2022-12-15T15:16:44.516Z,99910.13
2022-12-15T15:19:21.558Z,99913.06
2022-12-15T15:21:48.912Z,99917.09
2022-12-15T15:24:15.864Z,99919.69
2022-12-15T15:26:45.973Z,99916.66
2022-12-15T15:29:41.531Z,99920.38
2022-12-15T15:32:19.230Z,99934.78
2022-12-15T15:34:47.335Z,99923.06
2022-12-15T15:37:32.571Z,99928.59
2022-12-15T15:39:59.511Z,99936.34
2022-12-15T15:42:32.459Z,99930.75
2022-12-15T15:44:59.797Z,99937.72
2022-12-15T15:47:27.134Z,99939.06
2022-12-15T15:49:58.308Z,99944.38
2022-12-15T15:52:25.813Z,99945.00
2022-12-15T15:54:53.749Z,99959.66
2022-12-15T15:57:20.694Z,99968.78
2022-12-15T15:59:47.887Z,99977.56
2022-12-15T16:02:15.610Z,99970.56
2022-12-15T16:04:44.314Z,99965.44
2022-12-15T16:07:25.522Z,99969.03
2022-12-15T16:09:53.897Z,99973.16
2022-12-15T16:12:40.430Z,99977.88
2022-12-15T16:15:16.867Z,99989.72
2022-12-15T16:17:44.165Z,100000.09
2022-12-15T16:20:17.117Z,99994.34
2022-12-15T16:22:48.869Z,100001.75
2022-12-15T16:25:48.473Z,100013.81
2022-12-15T16:28:25.105Z,100011.22
2022-12-15T16:30:52.876Z,100011.09
2022-12-15T16:33:20.470Z,100018.72
2022-12-15T16:35:49.606Z,100015.25
2022-12-15T16:38:26.861Z,100023.25
2022-12-15T16:40:55.493Z,100016.28
2022-12-15T16:43:27.901Z,100018.28
2022-12-15T16:45:57.284Z,100027.41
2022-12-15T16:48:24.448Z,100031.91
2022-12-15T16:50:58.317Z,100038.38
2022-12-15T16:53:33.311Z,100037.22
2022-12-15T16:56:04.024Z,100043.66
2022-12-15T16:58:32.358Z,100042.53
2022-12-15T17:00:59.714Z,100042.09
2022-12-15T17:03:27.202Z,100043.09
2022-12-15T17:06:01.605Z,100046.34
2022-12-15T17:08:42.316Z,100037.47
2022-12-15T17:11:27.417Z,100044.47
2022-12-15T17:13:57.450Z,100039.66
2022-12-15T17:16:26.359Z,100051.03
2022-12-15T17:18:53.554Z,100058.88
2022-12-15T17:21:28.102Z,100065.63
2022-12-15T17:24:00.775Z,100075.69
2022-12-15T17:26:32.218Z,100062.75
2022-12-15T17:29:13.464Z,100053.16
2022-12-15T17:31:40.426Z,100054.41
2022-12-15T17:34:27.934Z,100053.38
2022-12-15T17:36:59.449Z,100043.25
2022-12-15T17:39:27.349Z,100045.63
2022-12-15T17:42:02.949Z,100047.88
2022-12-15T17:44:37.765Z,100048.75
2022-12-15T17:47:08.240Z,100048.19
2022-12-15T17:49:38.639Z,100054.41
2022-12-15T17:52:21.214Z,100044.97
2022-12-15T17:54:48.309Z,100053.03
2022-12-15T17:57:15.280Z,100043.50
2022-12-15T17:59:42.350Z,100056.47
2022-12-15T18:02:18.286Z,100061.31
2022-12-15T18:04:45.404Z,100055.13
2022-12-15T18:07:20.301Z,100053.88
2022-12-15T18:09:47.953Z,100052.09
2022-12-15T18:12:22.575Z,100058.50
2022-12-15T18:14:50.234Z,100055.69
2022-12-15T18:17:17.270Z,100049.59
2022-12-15T18:19:45.010Z,100052.34
2022-12-15T18:22:22.593Z,100058.56
2022-12-15T18:24:53.082Z,100052.84
2022-12-15T18:27:26.359Z,100055.72
2022-12-15T18:29:54.038Z,100060.09
2022-12-15T18:32:25.971Z,100059.97
2022-12-15T18:34:53.974Z,100068.88
2022-12-15T18:37:24.695Z,100066.19
2022-12-15T18:39:52.078Z,100064.25
2022-12-15T18:42:21.374Z,100067.63
2022-12-15T18:44:51.807Z,100078.78
2022-12-15T18:47:22.366Z,100074.38
2022-12-15T18:49:49.658Z,100074.72
2022-12-15T18:52:20.591Z,100076.88
2022-12-15T18:54:49.647Z,100079.47
2022-12-15T18:57:27.658Z,100075.94
2022-12-15T19:00:10.036Z,100074.59
2022-12-15T19:02:37.134Z,100083.41
2022-12-15T19:05:04.618Z,100073.84
2022-12-15T19:07:32.605Z,100080.16
2022-12-15T19:10:01.048Z,100086.66
2022-12-15T19:12:28.055Z,100091.38
2022-12-15T19:14:55.200Z,100102.53
2022-12-15T19:17:43.000Z,100109.88
2022-12-15T19:20:39.139Z,100111.78
2022-12-15T19:23:07.808Z,100103.22
2022-12-15T19:25:35.573Z,100113.34
2022-12-15T19:28:02.600Z,100114.25
2022-12-15T19:30:37.024Z,100112.28
2022-12-15T19:33:10.354Z,100116.06
2022-12-15T19:35:40.256Z,100119.56
2022-12-15T19:38:08.291Z,100108.41
2022-12-15T19:40:37.602Z,100104.38
2022-12-15T19:43:05.456Z,100105.06
2022-12-15T19:45:33.766Z,100111.63
2022-12-15T19:48:00.883Z,100103.84
2022-12-15T19:50:36.668Z,100104.50
2022-12-15T19:53:24.199Z,100108.44
2022-12-15T19:55:54.405Z,100098.50
2022-12-15T19:58:26.933Z,100103.69
2022-12-15T20:00:58.023Z,100104.72
2022-12-15T20:03:26.224Z,100106.75
2022-12-15T20:05:56.427Z,100118.47
2022-12-15T20:08:29.592Z,100117.34
2022-12-15T20:10:56.991Z,100112.84
2022-12-15T20:13:26.512Z,100109.00
2022-12-15T20:15:54.851Z,100114.53
2022-12-15T20:18:22.172Z,100103.38
2022-12-15T20:20:50.948Z,100102.34
2022-12-15T20:23:26.187Z,100111.84
2022-12-15T20:25:54.669Z,100111.16
2022-12-15T20:28:29.433Z,100111.50
2022-12-15T20:30:58.231Z,100119.84
2022-12-15T20:33:25.381Z,100119.06
2022-12-15T20:35:52.877Z,100111.16
2022-12-15T20:38:32.495Z,100112.47
2022-12-15T20:41:01.557Z,100111.72
2022-12-15T20:43:31.811Z,100102.81
2022-12-15T20:46:22.906Z,100100.66
2022-12-15T20:48:52.098Z,100102.56
2022-12-15T20:51:26.054Z,100104.84
2022-12-15T20:53:55.690Z,100111.69
2022-12-15T20:56:23.852Z,100108.44
2022-12-15T20:58:52.897Z,100101.66
2022-12-15T21:01:33.048Z,100107.19
2022-12-15T21:04:03.637Z,100090.25
2022-12-15T21:06:30.984Z,100105.16
2022-12-15T21:08:58.012Z,100111.97
2022-12-15T21:11:28.373Z,100117.94
2022-12-15T21:13:59.259Z,100113.56
2022-12-15T21:16:29.089Z,100118.97
2022-12-15T21:19:20.239Z,100117.34
2022-12-15T21:21:47.846Z,100121.31
2022-12-15T21:24:25.419Z,100119.47
2022-12-15T21:26:52.998Z,100122.16
2022-12-15T21:29:24.826Z,100132.16
2022-12-15T21:31:51.928Z,100120.91
2022-12-15T21:34:18.940Z,100119.41
2022-12-15T21:36:51.835Z,100120.25
2022-12-15T21:39:30.105Z,100119.16
2022-12-15T21:42:13.229Z,100121.97
2022-12-15T21:44:41.599Z,100127.94
2022-12-15T21:47:52.030Z,100125.88
2022-12-15T21:50:19.838Z,100122.75
2022-12-15T21:52:47.823Z,100130.69
2022-12-15T21:55:21.309Z,100127.94
2022-12-15T21:57:48.706Z,100124.66
2022-12-15T22:00:18.337Z,100123.03
2022-12-15T22:02:47.288Z,100125.84
2022-12-15T22:05:23.668Z,100118.41
2022-12-15T22:07:51.228Z,100101.22
2022-12-15T22:10:18.688Z,100097.78
2022-12-15T22:12:59.031Z,100102.13
2022-12-15T22:15:28.798Z,100103.41
2022-12-15T22:17:56.158Z,100101.72
2022-12-15T22:20:24.568Z,100104.63
2022-12-15T22:22:51.813Z,100107.06
2022-12-15T22:25:26.085Z,100112.06
2022-12-15T22:27:54.746Z,100130.94
2022-12-15T22:30:26.871Z,100129.13
2022-12-15T22:32:54.305Z,100130.94
2022-12-15T22:35:27.204Z,100131.97
2022-12-15T22:37:54.190Z,100112.97
2022-12-15T22:40:24.183Z,100144.31
2022-12-15T22:42:57.652Z,100139.81
2022-12-15T22:45:24.862Z,100142.97
2022-12-15T22:47:53.505Z,100153.47
2022-12-15T22:50:25.635Z,100146.78
2022-12-15T22:52:52.946Z,100145.03
2022-12-15T22:55:22.851Z,100145.91
2022-12-15T22:58:01.222Z,100148.16
2022-12-15T23:00:28.567Z,100158.75
2022-12-15T23:05:29.387Z,100150.63
2022-12-15T23:07:56.380Z,100147.31
2022-12-15T23:10:42.011Z,100144.66
2022-12-15T23:13:08.990Z,100142.38
2022-12-15T23:15:54.867Z,100140.28
2022-12-15T23:18:21.895Z,100124.56
2022-12-15T23:20:48.890Z,100134.78
2022-12-15T23:23:15.883Z,100137.97
2022-12-15T23:25:43.787Z,100143.31
2022-12-15T23:28:10.775Z,100148.50
2022-12-15T23:30:37.871Z,100135.78
2022-12-15T23:33:04.926Z,100151.19
2022-12-15T23:35:31.948Z,100150.13
2022-12-15T23:37:58.983Z,100142.53
2022-12-15T23:40:26.098Z,100138.56
2022-12-15T23:42:53.764Z,100152.78
2022-12-15T23:45:21.106Z,100143.94
2022-12-15T23:47:48.155Z,100151.22
2022-12-15T23:50:15.169Z,100152.94
2022-12-15T23:52:42.387Z,100150.13
2022-12-15T23:55:10.206Z,100141.66
2022-12-15T23:57:39.471Z,100148.72
